• Join FlightAware (Why Join?)
  • Login
  • US Flag 
03:47PM EST


 

Airport Tracker/Info


-or-


 

Live Flight TrackerFlight Track Log ✈ SWA1086 ✈ 26-Apr-2013 ✈ KOKC - KMCI

Flight Track Log - Related Links

Times and Time Zones

All times are in EDT time to prevent confusion due to time zone crossing. See the SWA1086 flight status page for this flight to view local times or setup timezone preferences in your user account.

Time Position Orientation Groundspeed Altitude Reporting Facility
EDT Latitude Longitude Course Direction KTS MPH feet Rate Location/Type
11:03AM 35.3686 -97.5969 223° Southwest 155 178 2,300  Level Fort Worth Center
11:05AM 35.3331 -97.6375 223° Southwest 194 223 4,700 2,400 Climbing Fort Worth Center
11:06AM 35.3997 -97.6683 339° North 321 369 7,400 2,940 Climbing Fort Worth Center
11:07AM 35.4894 -97.6686 360° North 331 381 10,700 2,280 Climbing Fort Worth Center
11:08AM 35.5894 -97.6739 358° North 372 428 12,100 1,620 Climbing Fort Worth Center
11:09AM 35.6917 -97.6742 360° North 373 429 14,000 1,320 Climbing Fort Worth Center
11:10AM 35.8517 -97.6692 North 369 425 15,800 1,860 Climbing Kansas City Center
11:11AM 35.9717 -97.5992 25° Northeast 386 444 19,200 2,700 Climbing Kansas City Center
11:12AM 36.0758 -97.5400 25° Northeast 403 464 21,400 2,160 Climbing Kansas City Center
11:13AM 36.1842 -97.4803 24° Northeast 418 481 23,700 2,040 Climbing Kansas City Center
11:14AM 36.2944 -97.4186 24° Northeast 429 494 25,700 1,860 Climbing Kansas City Center
11:15AM 36.4061 -97.3542 25° Northeast 439 505 27,600 1,620 Climbing Kansas City Center
11:17AM 36.5206 -97.2889 25° Northeast 447 514 29,100 1,440 Climbing Kansas City Center
11:18AM 36.6378 -97.2247 24° Northeast 457 526 30,600 1,320 Climbing Kansas City Center
11:19AM 36.7803 -97.1411 25° Northeast 468 539 31,900 1,140 Climbing Kansas City Center
11:20AM 36.8833 -97.0722 28° Northeast 476 548 33,000 540 Climbing Kansas City Center
11:21AM 36.9997 -96.9958 28° Northeast 477 549 33,000  Level Kansas City Center
11:22AM 37.1394 -96.9053 27° Northeast 474 545 33,000  Level Kansas City Center
11:23AM 37.2547 -96.8297 28° Northeast 472 543 33,000  Level Kansas City Center
11:24AM 37.3722 -96.7528 27° Northeast 475 547 33,000  Level Kansas City Center
11:25AM 37.4886 -96.6722 29° Northeast 477 549 33,000  Level Kansas City Center
11:26AM 37.5769 -96.5469 48° Northeast 481 554 33,000  Level Kansas City Center
11:27AM 37.6681 -96.4247 47° Northeast 480 552 33,000  Level Kansas City Center
11:28AM 37.7756 -96.2872 45° Northeast 462 532 33,000  Level Kansas City Center
11:29AM 37.8650 -96.1742 45° Northeast 456 525 33,000  Level Kansas City Center
11:30AM 37.9519 -96.0764 42° Northeast 442 509 33,000 -420 Level Kansas City Center
11:31AM 38.0719 -95.9864 31° Northeast 448 516 32,200 -1,200 Descending Kansas City Center
11:32AM 38.1764 -95.9078 31° Northeast 454 522 30,500 -2,100 Descending Kansas City Center
11:33AM 38.2972 -95.8139 31° Northeast 456 525 27,900 -2,400 Descending Kansas City Center
11:34AM 38.4031 -95.7322 31° Northeast 461 531 25,700 -2,280 Descending Kansas City Center
11:35AM 38.5203 -95.6419 31° Northeast 443 510 23,200 -2,700 Descending Kansas City Center
11:36AM 38.6125 -95.5519 37° Northeast 440 506 20,300 -2,640 Descending Kansas City Center
11:37AM 38.7058 -95.4203 48° Northeast 448 516 17,800 -1,920 Descending Kansas City Center
11:38AM 38.7800 -95.3181 47° Northeast 414 476 16,300 -1,800 Descending Kansas City Center
11:39AM 38.8625 -95.2067 46° Northeast 389 448 14,200 -1,860 Descending Kansas City Center
11:40AM 38.9422 -95.1375 34° Northeast 360 414 12,500 -1,140 Descending Kansas City Center
11:41AM 39.0197 -95.0781 31° Northeast 341 392 12,000 -360 Descending Kansas City Center
11:42AM 39.1067 -95.0089 32° Northeast 334 384 11,800 -780 Descending Kansas City Center
11:43AM 39.1750 -94.9575 30° Northeast 299 344 10,400 -1,500 Descending Kansas City Center
11:44AM 39.2525 -94.8972 31° Northeast 294 338 8,700 -1,380 Descending Kansas City Center
11:45AM 39.3172 -94.8478 31° Northeast 285 328 7,600 -1,080 Descending Kansas City Center
11:46AM 39.3856 -94.8439 North 213 245 6,600 -1,380 Descending Kansas City Center
11:47AM 39.4103 -94.8017 53° Northeast 188 216 4,900 -1,680 Descending Kansas City Center
11:49AM 39.4011 -94.7328 100° East 170 196 3,100 -1,320 Descending Kansas City Center
11:50AM 39.3775 -94.7061 139° Southeast 134 154 2,200 -840 Descending Kansas City Center
11:51AM 39.3383 -94.7164 191° South 128 147 1,400 -600 Descending Kansas City Center
11:52AM 39.3022 -94.7264 192° South 130 150 1,000 -420 Descending Kansas City Center